sensor_id;sensor_type;location;lat;lon;timestamp;P1;durP1;ratioP1;P2;durP2;ratioP2
39502;SDS011;26970;49.900;10.774;2023-05-20T00:02:01;6.50;;;4.53;;
39502;SDS011;26970;49.900;10.774;2023-05-20T00:04:27;7.45;;;4.75;;
39502;SDS011;26970;49.900;10.774;2023-05-20T00:06:53;6.53;;;4.55;;
39502;SDS011;26970;49.900;10.774;2023-05-20T00:09:19;9.45;;;4.93;;
39502;SDS011;26970;49.900;10.774;2023-05-20T00:11:44;8.27;;;5.70;;
39502;SDS011;26970;49.900;10.774;2023-05-20T00:14:10;9.38;;;5.10;;
39502;SDS011;26970;49.900;10.774;2023-05-20T00:16:36;9.80;;;4.80;;
39502;SDS011;26970;49.900;10.774;2023-05-20T00:19:02;9.65;;;5.65;;
39502;SDS011;26970;49.900;10.774;2023-05-20T00:21:27;9.30;;;5.57;;
39502;SDS011;26970;49.900;10.774;2023-05-20T00:23:53;8.95;;;5.25;;
39502;SDS011;26970;49.900;10.774;2023-05-20T00:26:20;8.52;;;5.25;;
39502;SDS011;26970;49.900;10.774;2023-05-20T00:28:46;8.35;;;5.40;;
39502;SDS011;26970;49.900;10.774;2023-05-20T00:31:12;10.13;;;5.15;;
39502;SDS011;26970;49.900;10.774;2023-05-20T00:33:38;8.13;;;5.05;;
39502;SDS011;26970;49.900;10.774;2023-05-20T00:36:03;7.85;;;5.55;;
39502;SDS011;26970;49.900;10.774;2023-05-20T00:38:29;7.57;;;5.00;;
39502;SDS011;26970;49.900;10.774;2023-05-20T00:40:55;7.13;;;5.57;;
39502;SDS011;26970;49.900;10.774;2023-05-20T00:43:21;9.30;;;5.40;;
39502;SDS011;26970;49.900;10.774;2023-05-20T00:45:49;8.63;;;4.70;;
39502;SDS011;26970;49.900;10.774;2023-05-20T00:48:15;8.48;;;5.03;;
39502;SDS011;26970;49.900;10.774;2023-05-20T00:50:41;11.63;;;7.13;;
39502;SDS011;26970;49.900;10.774;2023-05-20T00:53:06;12.32;;;5.57;;
39502;SDS011;26970;49.900;10.774;2023-05-20T00:55:33;9.05;;;5.53;;
39502;SDS011;26970;49.900;10.774;2023-05-20T00:57:59;7.20;;;5.05;;
39502;SDS011;26970;49.900;10.774;2023-05-20T01:00:25;9.25;;;5.60;;
39502;SDS011;26970;49.900;10.774;2023-05-20T01:02:51;7.65;;;5.25;;
39502;SDS011;26970;49.900;10.774;2023-05-20T01:05:17;7.55;;;5.50;;
39502;SDS011;26970;49.900;10.774;2023-05-20T01:07:42;8.38;;;5.18;;
39502;SDS011;26970;49.900;10.774;2023-05-20T01:10:08;6.72;;;4.72;;
39502;SDS011;26970;49.900;10.774;2023-05-20T01:12:36;9.77;;;5.47;;
39502;SDS011;26970;49.900;10.774;2023-05-20T01:15:11;10.07;;;6.30;;
39502;SDS011;26970;49.900;10.774;2023-05-20T01:17:40;7.18;;;5.38;;
39502;SDS011;26970;49.900;10.774;2023-05-20T01:20:11;8.50;;;5.25;;
39502;SDS011;26970;49.900;10.774;2023-05-20T01:22:38;8.45;;;5.75;;
39502;SDS011;26970;49.900;10.774;2023-05-20T01:25:14;8.65;;;5.57;;
39502;SDS011;26970;49.900;10.774;2023-05-20T01:27:39;11.63;;;5.72;;
39502;SDS011;26970;49.900;10.774;2023-05-20T01:30:05;17.25;;;5.80;;
39502;SDS011;26970;49.900;10.774;2023-05-20T01:32:33;7.78;;;5.43;;
39502;SDS011;26970;49.900;10.774;2023-05-20T01:35:02;9.55;;;5.97;;
39502;SDS011;26970;49.900;10.774;2023-05-20T01:40:52;9.07;;;5.65;;
39502;SDS011;26970;49.900;10.774;2023-05-20T01:43:19;8.10;;;6.03;;
39502;SDS011;26970;49.900;10.774;2023-05-20T01:45:45;7.65;;;5.80;;
39502;SDS011;26970;49.900;10.774;2023-05-20T01:48:11;8.38;;;6.10;;
39502;SDS011;26970;49.900;10.774;2023-05-20T01:50:37;10.15;;;5.72;;
39502;SDS011;26970;49.900;10.774;2023-05-20T01:53:03;8.73;;;6.45;;
39502;SDS011;26970;49.900;10.774;2023-05-20T01:55:30;9.07;;;5.93;;
39502;SDS011;26970;49.900;10.774;2023-05-20T01:57:55;9.30;;;5.82;;
39502;SDS011;26970;49.900;10.774;2023-05-20T02:00:21;9.57;;;5.80;;
39502;SDS011;26970;49.900;10.774;2023-05-20T02:02:46;9.98;;;6.40;;
39502;SDS011;26970;49.900;10.774;2023-05-20T02:05:12;11.50;;;6.15;;
39502;SDS011;26970;49.900;10.774;2023-05-20T02:07:38;8.23;;;6.28;;
39502;SDS011;26970;49.900;10.774;2023-05-20T02:10:03;9.10;;;6.07;;
39502;SDS011;26970;49.900;10.774;2023-05-20T02:12:29;10.10;;;5.95;;
39502;SDS011;26970;49.900;10.774;2023-05-20T02:14:55;7.82;;;5.40;;
39502;SDS011;26970;49.900;10.774;2023-05-20T02:17:21;8.43;;;5.97;;
39502;SDS011;26970;49.900;10.774;2023-05-20T02:19:46;8.02;;;6.00;;
39502;SDS011;26970;49.900;10.774;2023-05-20T02:22:12;10.07;;;6.10;;
39502;SDS011;26970;49.900;10.774;2023-05-20T02:24:38;8.13;;;6.07;;
39502;SDS011;26970;49.900;10.774;2023-05-20T02:27:04;8.90;;;6.40;;
39502;SDS011;26970;49.900;10.774;2023-05-20T02:29:30;9.00;;;6.22;;
39502;SDS011;26970;49.900;10.774;2023-05-20T02:31:56;7.70;;;5.55;;
39502;SDS011;26970;49.900;10.774;2023-05-20T02:34:22;9.90;;;6.20;;
39502;SDS011;26970;49.900;10.774;2023-05-20T02:36:49;9.27;;;6.47;;
39502;SDS011;26970;49.900;10.774;2023-05-20T02:39:15;9.30;;;5.88;;
39502;SDS011;26970;49.900;10.774;2023-05-20T02:41:41;8.68;;;6.05;;
39502;SDS011;26970;49.900;10.774;2023-05-20T02:44:07;10.43;;;6.38;;
39502;SDS011;26970;49.900;10.774;2023-05-20T02:46:32;7.88;;;6.10;;
39502;SDS011;26970;49.900;10.774;2023-05-20T02:48:58;8.75;;;6.82;;
39502;SDS011;26970;49.900;10.774;2023-05-20T02:51:24;13.15;;;6.50;;
39502;SDS011;26970;49.900;10.774;2023-05-20T02:53:49;11.73;;;6.00;;
39502;SDS011;26970;49.900;10.774;2023-05-20T02:56:15;9.90;;;6.35;;
39502;SDS011;26970;49.900;10.774;2023-05-20T02:58:45;9.93;;;6.75;;
39502;SDS011;26970;49.900;10.774;2023-05-20T03:01:11;10.10;;;6.30;;
39502;SDS011;26970;49.900;10.774;2023-05-20T03:03:37;8.93;;;6.28;;
39502;SDS011;26970;49.900;10.774;2023-05-20T03:06:04;11.05;;;6.68;;
39502;SDS011;26970;49.900;10.774;2023-05-20T03:08:30;8.68;;;6.32;;
39502;SDS011;26970;49.900;10.774;2023-05-20T03:10:58;10.60;;;6.38;;
39502;SDS011;26970;49.900;10.774;2023-05-20T03:13:24;9.75;;;6.80;;
39502;SDS011;26970;49.900;10.774;2023-05-20T03:15:49;9.23;;;6.68;;
39502;SDS011;26970;49.900;10.774;2023-05-20T03:18:15;9.68;;;7.55;;
39502;SDS011;26970;49.900;10.774;2023-05-20T03:20:41;8.75;;;7.03;;
39502;SDS011;26970;49.900;10.774;2023-05-20T03:23:07;10.30;;;6.38;;
39502;SDS011;26970;49.900;10.774;2023-05-20T03:25:33;9.07;;;6.63;;
39502;SDS011;26970;49.900;10.774;2023-05-20T03:28:00;10.05;;;7.18;;
39502;SDS011;26970;49.900;10.774;2023-05-20T03:30:26;8.93;;;6.60;;
39502;SDS011;26970;49.900;10.774;2023-05-20T03:32:52;10.30;;;6.57;;
39502;SDS011;26970;49.900;10.774;2023-05-20T03:35:21;9.43;;;7.40;;
39502;SDS011;26970;49.900;10.774;2023-05-20T03:37:47;11.52;;;7.65;;
39502;SDS011;26970;49.900;10.774;2023-05-20T03:40:13;17.08;;;9.27;;
39502;SDS011;26970;49.900;10.774;2023-05-20T03:42:38;10.43;;;7.07;;
39502;SDS011;26970;49.900;10.774;2023-05-20T03:45:04;8.00;;;5.28;;
39502;SDS011;26970;49.900;10.774;2023-05-20T03:47:33;9.18;;;6.88;;
39502;SDS011;26970;49.900;10.774;2023-05-20T03:49:59;10.25;;;6.78;;
39502;SDS011;26970;49.900;10.774;2023-05-20T03:52:24;12.07;;;7.10;;
39502;SDS011;26970;49.900;10.774;2023-05-20T03:54:50;9.25;;;7.18;;
39502;SDS011;26970;49.900;10.774;2023-05-20T03:57:17;9.98;;;7.25;;
39502;SDS011;26970;49.900;10.774;2023-05-20T03:59:43;11.82;;;7.82;;
39502;SDS011;26970;49.900;10.774;2023-05-20T04:02:09;10.45;;;7.60;;
39502;SDS011;26970;49.900;10.774;2023-05-20T04:04:35;9.80;;;7.68;;
39502;SDS011;26970;49.900;10.774;2023-05-20T04:07:00;10.23;;;7.85;;
39502;SDS011;26970;49.900;10.774;2023-05-20T04:09:27;10.85;;;7.13;;
39502;SDS011;26970;49.900;10.774;2023-05-20T04:11:52;10.43;;;7.65;;
39502;SDS011;26970;49.900;10.774;2023-05-20T04:14:18;10.02;;;7.18;;
39502;SDS011;26970;49.900;10.774;2023-05-20T04:16:44;9.75;;;7.38;;
39502;SDS011;26970;49.900;10.774;2023-05-20T04:19:10;12.15;;;7.68;;
39502;SDS011;26970;49.900;10.774;2023-05-20T04:21:36;10.55;;;7.63;;
39502;SDS011;26970;49.900;10.774;2023-05-20T04:24:02;11.77;;;7.63;;
39502;SDS011;26970;49.900;10.774;2023-05-20T04:26:28;10.15;;;7.70;;
39502;SDS011;26970;49.900;10.774;2023-05-20T04:28:54;11.02;;;7.55;;
39502;SDS011;26970;49.900;10.774;2023-05-20T04:31:22;11.40;;;7.85;;
39502;SDS011;26970;49.900;10.774;2023-05-20T04:33:50;9.70;;;8.68;;
39502;SDS011;26970;49.900;10.774;2023-05-20T04:36:19;10.02;;;8.07;;
39502;SDS011;26970;49.900;10.774;2023-05-20T04:38:46;11.13;;;8.07;;
39502;SDS011;26970;49.900;10.774;2023-05-20T04:41:12;11.15;;;7.78;;
39502;SDS011;26970;49.900;10.774;2023-05-20T04:43:37;9.82;;;7.50;;
39502;SDS011;26970;49.900;10.774;2023-05-20T04:46:04;9.00;;;7.20;;
39502;SDS011;26970;49.900;10.774;2023-05-20T04:48:30;10.35;;;7.82;;
39502;SDS011;26970;49.900;10.774;2023-05-20T04:50:56;10.80;;;7.57;;
39502;SDS011;26970;49.900;10.774;2023-05-20T04:53:22;10.35;;;7.78;;
39502;SDS011;26970;49.900;10.774;2023-05-20T04:55:48;11.10;;;8.10;;
39502;SDS011;26970;49.900;10.774;2023-05-20T04:58:17;9.15;;;7.03;;
39502;SDS011;26970;49.900;10.774;2023-05-20T05:00:44;11.45;;;8.32;;
39502;SDS011;26970;49.900;10.774;2023-05-20T05:03:10;10.82;;;7.75;;
39502;SDS011;26970;49.900;10.774;2023-05-20T05:05:39;9.63;;;7.68;;
39502;SDS011;26970;49.900;10.774;2023-05-20T05:08:06;11.43;;;7.82;;
39502;SDS011;26970;49.900;10.774;2023-05-20T05:10:32;11.45;;;7.90;;
39502;SDS011;26970;49.900;10.774;2023-05-20T05:12:59;10.77;;;7.43;;
39502;SDS011;26970;49.900;10.774;2023-05-20T05:15:25;12.48;;;7.22;;
39502;SDS011;26970;49.900;10.774;2023-05-20T05:17:51;9.85;;;7.32;;
39502;SDS011;26970;49.900;10.774;2023-05-20T05:20:16;13.63;;;7.90;;
39502;SDS011;26970;49.900;10.774;2023-05-20T05:22:42;12.02;;;8.32;;
39502;SDS011;26970;49.900;10.774;2023-05-20T05:25:08;11.90;;;8.95;;
39502;SDS011;26970;49.900;10.774;2023-05-20T05:27:35;11.27;;;8.93;;
39502;SDS011;26970;49.900;10.774;2023-05-20T05:30:01;12.63;;;9.10;;
39502;SDS011;26970;49.900;10.774;2023-05-20T05:32:27;11.57;;;8.63;;
39502;SDS011;26970;49.900;10.774;2023-05-20T05:34:53;12.73;;;9.38;;
39502;SDS011;26970;49.900;10.774;2023-05-20T05:37:19;13.07;;;9.57;;
39502;SDS011;26970;49.900;10.774;2023-05-20T05:39:45;13.75;;;10.05;;
39502;SDS011;26970;49.900;10.774;2023-05-20T05:42:15;12.40;;;9.45;;
39502;SDS011;26970;49.900;10.774;2023-05-20T05:44:45;12.43;;;9.02;;
39502;SDS011;26970;49.900;10.774;2023-05-20T05:47:13;11.52;;;8.32;;
39502;SDS011;26970;49.900;10.774;2023-05-20T05:49:38;11.25;;;9.05;;
39502;SDS011;26970;49.900;10.774;2023-05-20T05:52:04;12.48;;;9.30;;
39502;SDS011;26970;49.900;10.774;2023-05-20T05:54:30;10.95;;;8.93;;
39502;SDS011;26970;49.900;10.774;2023-05-20T05:56:55;14.27;;;9.10;;
39502;SDS011;26970;49.900;10.774;2023-05-20T05:59:21;13.27;;;9.75;;
39502;SDS011;26970;49.900;10.774;2023-05-20T06:01:47;13.55;;;9.25;;
39502;SDS011;26970;49.900;10.774;2023-05-20T06:04:13;14.05;;;9.23;;
39502;SDS011;26970;49.900;10.774;2023-05-20T06:06:39;11.93;;;9.13;;
39502;SDS011;26970;49.900;10.774;2023-05-20T06:09:05;11.73;;;9.32;;
39502;SDS011;26970;49.900;10.774;2023-05-20T06:11:30;12.30;;;9.13;;
39502;SDS011;26970;49.900;10.774;2023-05-20T06:13:56;14.20;;;9.50;;
39502;SDS011;26970;49.900;10.774;2023-05-20T06:16:22;13.32;;;9.40;;
39502;SDS011;26970;49.900;10.774;2023-05-20T06:18:48;11.80;;;8.57;;
39502;SDS011;26970;49.900;10.774;2023-05-20T06:21:17;12.88;;;9.63;;
39502;SDS011;26970;49.900;10.774;2023-05-20T06:23:42;13.10;;;9.55;;
39502;SDS011;26970;49.900;10.774;2023-05-20T06:26:08;14.88;;;9.18;;
39502;SDS011;26970;49.900;10.774;2023-05-20T06:28:34;12.13;;;9.57;;
39502;SDS011;26970;49.900;10.774;2023-05-20T06:31:04;14.70;;;9.85;;
39502;SDS011;26970;49.900;10.774;2023-05-20T06:33:33;13.65;;;10.50;;
39502;SDS011;26970;49.900;10.774;2023-05-20T06:35:58;14.00;;;9.82;;
39502;SDS011;26970;49.900;10.774;2023-05-20T06:38:25;18.33;;;9.77;;
39502;SDS011;26970;49.900;10.774;2023-05-20T06:40:51;12.45;;;9.43;;
39502;SDS011;26970;49.900;10.774;2023-05-20T06:43:17;13.18;;;10.25;;
39502;SDS011;26970;49.900;10.774;2023-05-20T06:45:43;14.85;;;10.25;;
39502;SDS011;26970;49.900;10.774;2023-05-20T06:48:09;12.40;;;9.93;;
39502;SDS011;26970;49.900;10.774;2023-05-20T06:50:35;11.52;;;9.35;;
39502;SDS011;26970;49.900;10.774;2023-05-20T06:53:00;12.45;;;9.73;;
39502;SDS011;26970;49.900;10.774;2023-05-20T06:55:26;11.82;;;8.65;;
39502;SDS011;26970;49.900;10.774;2023-05-20T06:57:52;13.85;;;9.25;;
39502;SDS011;26970;49.900;10.774;2023-05-20T07:00:17;12.90;;;8.82;;
39502;SDS011;26970;49.900;10.774;2023-05-20T07:02:43;13.15;;;9.63;;
39502;SDS011;26970;49.900;10.774;2023-05-20T07:05:09;11.43;;;7.53;;
39502;SDS011;26970;49.900;10.774;2023-05-20T07:07:34;13.98;;;10.32;;
39502;SDS011;26970;49.900;10.774;2023-05-20T07:10:00;13.68;;;8.40;;
39502;SDS011;26970;49.900;10.774;2023-05-20T07:12:26;13.60;;;9.50;;
39502;SDS011;26970;49.900;10.774;2023-05-20T07:14:51;11.63;;;8.52;;
39502;SDS011;26970;49.900;10.774;2023-05-20T07:17:17;11.57;;;7.68;;
39502;SDS011;26970;49.900;10.774;2023-05-20T07:19:42;14.43;;;10.18;;
39502;SDS011;26970;49.900;10.774;2023-05-20T07:22:08;11.40;;;8.70;;
39502;SDS011;26970;49.900;10.774;2023-05-20T07:24:34;14.48;;;8.85;;
39502;SDS011;26970;49.900;10.774;2023-05-20T07:27:00;13.10;;;9.40;;
39502;SDS011;26970;49.900;10.774;2023-05-20T07:29:26;15.95;;;10.27;;
39502;SDS011;26970;49.900;10.774;2023-05-20T07:31:51;12.10;;;8.60;;
39502;SDS011;26970;49.900;10.774;2023-05-20T07:34:17;11.95;;;9.13;;
39502;SDS011;26970;49.900;10.774;2023-05-20T07:36:43;12.43;;;9.88;;
39502;SDS011;26970;49.900;10.774;2023-05-20T07:39:08;13.75;;;9.35;;
39502;SDS011;26970;49.900;10.774;2023-05-20T07:41:34;12.85;;;9.52;;
39502;SDS011;26970;49.900;10.774;2023-05-20T07:44:01;12.82;;;9.20;;
39502;SDS011;26970;49.900;10.774;2023-05-20T07:46:28;17.33;;;9.38;;
39502;SDS011;26970;49.900;10.774;2023-05-20T07:48:54;13.40;;;9.90;;
39502;SDS011;26970;49.900;10.774;2023-05-20T07:51:20;13.38;;;9.25;;
39502;SDS011;26970;49.900;10.774;2023-05-20T07:53:45;13.10;;;9.65;;
39502;SDS011;26970;49.900;10.774;2023-05-20T07:56:11;15.60;;;10.45;;
39502;SDS011;26970;49.900;10.774;2023-05-20T07:58:39;11.07;;;7.80;;
39502;SDS011;26970;49.900;10.774;2023-05-20T08:01:05;15.20;;;9.75;;
39502;SDS011;26970;49.900;10.774;2023-05-20T08:03:33;14.88;;;10.73;;
39502;SDS011;26970;49.900;10.774;2023-05-20T08:05:59;11.15;;;9.23;;
39502;SDS011;26970;49.900;10.774;2023-05-20T08:08:25;12.65;;;9.20;;
39502;SDS011;26970;49.900;10.774;2023-05-20T08:10:52;14.05;;;8.82;;
39502;SDS011;26970;49.900;10.774;2023-05-20T08:13:18;13.18;;;10.15;;
39502;SDS011;26970;49.900;10.774;2023-05-20T08:15:44;13.13;;;10.65;;
39502;SDS011;26970;49.900;10.774;2023-05-20T08:18:13;14.27;;;10.90;;
39502;SDS011;26970;49.900;10.774;2023-05-20T08:21:03;13.20;;;9.88;;
39502;SDS011;26970;49.900;10.774;2023-05-20T08:23:33;13.43;;;9.52;;
39502;SDS011;26970;49.900;10.774;2023-05-20T08:26:00;13.07;;;8.82;;
39502;SDS011;26970;49.900;10.774;2023-05-20T08:28:30;10.95;;;7.25;;
39502;SDS011;26970;49.900;10.774;2023-05-20T08:30:56;13.30;;;9.52;;
39502;SDS011;26970;49.900;10.774;2023-05-20T08:33:24;12.30;;;9.60;;
39502;SDS011;26970;49.900;10.774;2023-05-20T08:35:49;13.02;;;10.50;;
39502;SDS011;26970;49.900;10.774;2023-05-20T08:38:15;11.80;;;7.57;;
39502;SDS011;26970;49.900;10.774;2023-05-20T08:40:41;11.05;;;8.50;;
39502;SDS011;26970;49.900;10.774;2023-05-20T08:43:06;12.63;;;9.40;;
39502;SDS011;26970;49.900;10.774;2023-05-20T08:45:32;13.05;;;8.77;;
39502;SDS011;26970;49.900;10.774;2023-05-20T08:47:59;13.13;;;9.20;;
39502;SDS011;26970;49.900;10.774;2023-05-20T08:50:25;14.45;;;9.55;;
39502;SDS011;26970;49.900;10.774;2023-05-20T08:52:51;12.02;;;9.38;;
39502;SDS011;26970;49.900;10.774;2023-05-20T08:55:24;8.70;;;6.13;;
39502;SDS011;26970;49.900;10.774;2023-05-20T08:58:10;11.60;;;8.85;;
39502;SDS011;26970;49.900;10.774;2023-05-20T09:00:36;12.68;;;8.73;;
39502;SDS011;26970;49.900;10.774;2023-05-20T09:03:02;8.73;;;6.63;;
39502;SDS011;26970;49.900;10.774;2023-05-20T09:05:28;10.73;;;8.40;;
39502;SDS011;26970;49.900;10.774;2023-05-20T09:08:03;12.18;;;7.72;;
39502;SDS011;26970;49.900;10.774;2023-05-20T09:10:33;13.98;;;9.30;;
39502;SDS011;26970;49.900;10.774;2023-05-20T09:12:59;12.02;;;9.73;;
39502;SDS011;26970;49.900;10.774;2023-05-20T09:15:31;10.68;;;7.05;;
39502;SDS011;26970;49.900;10.774;2023-05-20T09:17:58;13.05;;;8.35;;
39502;SDS011;26970;49.900;10.774;2023-05-20T09:20:26;10.13;;;8.77;;
39502;SDS011;26970;49.900;10.774;2023-05-20T09:22:53;9.02;;;7.60;;
39502;SDS011;26970;49.900;10.774;2023-05-20T09:25:22;10.73;;;8.55;;
39502;SDS011;26970;49.900;10.774;2023-05-20T09:27:48;10.45;;;8.20;;
39502;SDS011;26970;49.900;10.774;2023-05-20T09:30:17;9.35;;;7.53;;
39502;SDS011;26970;49.900;10.774;2023-05-20T09:32:43;13.23;;;8.65;;
39502;SDS011;26970;49.900;10.774;2023-05-20T09:35:12;11.38;;;9.32;;
39502;SDS011;26970;49.900;10.774;2023-05-20T09:37:38;11.93;;;8.07;;
39502;SDS011;26970;49.900;10.774;2023-05-20T09:40:08;12.43;;;8.82;;
39502;SDS011;26970;49.900;10.774;2023-05-20T09:42:46;10.55;;;7.07;;
39502;SDS011;26970;49.900;10.774;2023-05-20T09:45:16;11.65;;;9.18;;
39502;SDS011;26970;49.900;10.774;2023-05-20T09:47:42;13.10;;;8.32;;
39502;SDS011;26970;49.900;10.774;2023-05-20T09:50:09;12.20;;;9.00;;
39502;SDS011;26970;49.900;10.774;2023-05-20T09:52:36;13.85;;;8.32;;
39502;SDS011;26970;49.900;10.774;2023-05-20T09:55:03;13.88;;;9.73;;
39502;SDS011;26970;49.900;10.774;2023-05-20T09:57:33;10.98;;;8.38;;
39502;SDS011;26970;49.900;10.774;2023-05-20T09:59:59;13.43;;;9.45;;
39502;SDS011;26970;49.900;10.774;2023-05-20T10:02:26;13.07;;;9.52;;
39502;SDS011;26970;49.900;10.774;2023-05-20T10:04:52;10.80;;;6.78;;
39502;SDS011;26970;49.900;10.774;2023-05-20T10:13:04;10.25;;;7.85;;
39502;SDS011;26970;49.900;10.774;2023-05-20T10:19:19;13.93;;;7.95;;
39502;SDS011;26970;49.900;10.774;2023-05-20T10:24:30;14.27;;;8.02;;
39502;SDS011;26970;49.900;10.774;2023-05-20T10:26:58;9.35;;;7.30;;
39502;SDS011;26970;49.900;10.774;2023-05-20T10:29:26;13.77;;;8.48;;
39502;SDS011;26970;49.900;10.774;2023-05-20T10:31:52;12.07;;;8.82;;
39502;SDS011;26970;49.900;10.774;2023-05-20T10:34:19;11.88;;;9.05;;
39502;SDS011;26970;49.900;10.774;2023-05-20T10:39:18;13.10;;;8.40;;
39502;SDS011;26970;49.900;10.774;2023-05-20T10:41:50;11.13;;;8.70;;
39502;SDS011;26970;49.900;10.774;2023-05-20T10:44:15;11.63;;;7.85;;
39502;SDS011;26970;49.900;10.774;2023-05-20T10:46:41;11.88;;;8.95;;
39502;SDS011;26970;49.900;10.774;2023-05-20T10:49:16;14.00;;;9.18;;
39502;SDS011;26970;49.900;10.774;2023-05-20T10:51:45;10.60;;;7.55;;
39502;SDS011;26970;49.900;10.774;2023-05-20T10:54:11;13.30;;;8.43;;
39502;SDS011;26970;49.900;10.774;2023-05-20T10:56:37;16.90;;;7.65;;
39502;SDS011;26970;49.900;10.774;2023-05-20T10:59:04;9.57;;;7.22;;
39502;SDS011;26970;49.900;10.774;2023-05-20T11:01:29;10.43;;;8.30;;
39502;SDS011;26970;49.900;10.774;2023-05-20T11:03:55;12.45;;;8.50;;
39502;SDS011;26970;49.900;10.774;2023-05-20T11:06:24;10.80;;;7.63;;
39502;SDS011;26970;49.900;10.774;2023-05-20T11:08:52;11.75;;;8.27;;
39502;SDS011;26970;49.900;10.774;2023-05-20T11:11:18;15.88;;;8.38;;
39502;SDS011;26970;49.900;10.774;2023-05-20T11:13:44;12.60;;;7.95;;
39502;SDS011;26970;49.900;10.774;2023-05-20T11:16:14;10.88;;;7.63;;
39502;SDS011;26970;49.900;10.774;2023-05-20T11:18:40;14.82;;;7.15;;
39502;SDS011;26970;49.900;10.774;2023-05-20T11:21:05;13.50;;;8.57;;
39502;SDS011;26970;49.900;10.774;2023-05-20T11:23:31;11.75;;;8.20;;
39502;SDS011;26970;49.900;10.774;2023-05-20T11:25:56;11.23;;;8.35;;
39502;SDS011;26970;49.900;10.774;2023-05-20T11:28:22;7.20;;;6.28;;
39502;SDS011;26970;49.900;10.774;2023-05-20T11:30:48;13.05;;;7.72;;
39502;SDS011;26970;49.900;10.774;2023-05-20T11:33:15;9.63;;;6.93;;
39502;SDS011;26970;49.900;10.774;2023-05-20T11:35:48;11.25;;;7.57;;
39502;SDS011;26970;49.900;10.774;2023-05-20T11:38:16;10.52;;;8.07;;
39502;SDS011;26970;49.900;10.774;2023-05-20T11:40:49;11.73;;;8.25;;
39502;SDS011;26970;49.900;10.774;2023-05-20T11:43:16;9.40;;;7.50;;
39502;SDS011;26970;49.900;10.774;2023-05-20T11:45:43;14.30;;;7.70;;
39502;SDS011;26970;49.900;10.774;2023-05-20T11:48:10;10.07;;;7.70;;
39502;SDS011;26970;49.900;10.774;2023-05-20T11:50:40;11.00;;;7.53;;
39502;SDS011;26970;49.900;10.774;2023-05-20T11:53:07;10.73;;;8.10;;
39502;SDS011;26970;49.900;10.774;2023-05-20T11:55:43;9.60;;;6.93;;
39502;SDS011;26970;49.900;10.774;2023-05-20T11:58:10;10.85;;;8.00;;
39502;SDS011;26970;49.900;10.774;2023-05-20T12:00:39;8.70;;;7.70;;
39502;SDS011;26970;49.900;10.774;2023-05-20T12:03:04;12.93;;;7.60;;
39502;SDS011;26970;49.900;10.774;2023-05-20T12:05:30;10.50;;;7.78;;
39502;SDS011;26970;49.900;10.774;2023-05-20T12:07:55;11.27;;;7.00;;
39502;SDS011;26970;49.900;10.774;2023-05-20T12:10:30;9.43;;;6.82;;
39502;SDS011;26970;49.900;10.774;2023-05-20T12:13:39;10.20;;;7.03;;
39502;SDS011;26970;49.900;10.774;2023-05-20T12:19:06;8.65;;;7.35;;
39502;SDS011;26970;49.900;10.774;2023-05-20T12:21:36;10.45;;;7.65;;
39502;SDS011;26970;49.900;10.774;2023-05-20T12:24:12;10.10;;;7.10;;
39502;SDS011;26970;49.900;10.774;2023-05-20T12:26:43;10.70;;;7.38;;
39502;SDS011;26970;49.900;10.774;2023-05-20T12:29:10;8.70;;;6.70;;
39502;SDS011;26970;49.900;10.774;2023-05-20T12:31:39;9.18;;;6.70;;
39502;SDS011;26970;49.900;10.774;2023-05-20T12:34:07;10.63;;;6.97;;
39502;SDS011;26970;49.900;10.774;2023-05-20T12:36:33;10.88;;;7.18;;
39502;SDS011;26970;49.900;10.774;2023-05-20T12:38:59;10.57;;;7.78;;
39502;SDS011;26970;49.900;10.774;2023-05-20T12:41:27;10.13;;;7.20;;
39502;SDS011;26970;49.900;10.774;2023-05-20T12:43:57;10.30;;;7.80;;
39502;SDS011;26970;49.900;10.774;2023-05-20T12:46:25;11.18;;;7.70;;
39502;SDS011;26970;49.900;10.774;2023-05-20T12:49:01;9.40;;;7.55;;
39502;SDS011;26970;49.900;10.774;2023-05-20T12:51:26;9.15;;;7.32;;
39502;SDS011;26970;49.900;10.774;2023-05-20T12:53:52;11.63;;;8.18;;
39502;SDS011;26970;49.900;10.774;2023-05-20T12:56:17;11.43;;;7.65;;
39502;SDS011;26970;49.900;10.774;2023-05-20T12:58:47;8.63;;;7.18;;
39502;SDS011;26970;49.900;10.774;2023-05-20T13:01:13;11.32;;;7.65;;
39502;SDS011;26970;49.900;10.774;2023-05-20T13:03:52;10.85;;;6.63;;
39502;SDS011;26970;49.900;10.774;2023-05-20T13:06:19;9.98;;;6.55;;
39502;SDS011;26970;49.900;10.774;2023-05-20T13:08:45;8.70;;;6.50;;
39502;SDS011;26970;49.900;10.774;2023-05-20T13:11:10;9.68;;;6.70;;
39502;SDS011;26970;49.900;10.774;2023-05-20T13:13:36;8.50;;;6.53;;
39502;SDS011;26970;49.900;10.774;2023-05-20T13:16:02;8.05;;;6.28;;
39502;SDS011;26970;49.900;10.774;2023-05-20T13:18:34;7.25;;;5.88;;
39502;SDS011;26970;49.900;10.774;2023-05-20T13:21:07;8.45;;;6.28;;
39502;SDS011;26970;49.900;10.774;2023-05-20T13:23:33;8.05;;;6.03;;
39502;SDS011;26970;49.900;10.774;2023-05-20T13:26:16;6.75;;;5.80;;
39502;SDS011;26970;49.900;10.774;2023-05-20T13:28:45;8.95;;;5.78;;
39502;SDS011;26970;49.900;10.774;2023-05-20T13:31:20;8.25;;;6.40;;
39502;SDS011;26970;49.900;10.774;2023-05-20T13:33:57;11.50;;;6.50;;
39502;SDS011;26970;49.900;10.774;2023-05-20T13:36:24;9.07;;;6.43;;
39502;SDS011;26970;49.900;10.774;2023-05-20T13:38:50;8.00;;;6.03;;
39502;SDS011;26970;49.900;10.774;2023-05-20T13:41:16;11.85;;;6.15;;
39502;SDS011;26970;49.900;10.774;2023-05-20T13:43:42;7.57;;;6.18;;
39502;SDS011;26970;49.900;10.774;2023-05-20T13:46:07;8.45;;;5.72;;
39502;SDS011;26970;49.900;10.774;2023-05-20T13:48:33;7.43;;;5.60;;
39502;SDS011;26970;49.900;10.774;2023-05-20T13:50:59;10.32;;;6.45;;
39502;SDS011;26970;49.900;10.774;2023-05-20T13:53:27;8.35;;;6.25;;
39502;SDS011;26970;49.900;10.774;2023-05-20T13:55:53;8.98;;;6.40;;
39502;SDS011;26970;49.900;10.774;2023-05-20T13:58:18;10.02;;;6.32;;
39502;SDS011;26970;49.900;10.774;2023-05-20T14:00:44;11.45;;;6.32;;
39502;SDS011;26970;49.900;10.774;2023-05-20T14:03:11;8.82;;;5.88;;
39502;SDS011;26970;49.900;10.774;2023-05-20T14:05:36;8.85;;;6.38;;
39502;SDS011;26970;49.900;10.774;2023-05-20T14:08:02;7.82;;;5.55;;
39502;SDS011;26970;49.900;10.774;2023-05-20T14:10:31;7.65;;;5.90;;
39502;SDS011;26970;49.900;10.774;2023-05-20T14:12:56;8.07;;;7.10;;
39502;SDS011;26970;49.900;10.774;2023-05-20T14:15:22;8.50;;;6.05;;
39502;SDS011;26970;49.900;10.774;2023-05-20T14:17:57;7.38;;;5.82;;
39502;SDS011;26970;49.900;10.774;2023-05-20T14:20:23;8.05;;;6.45;;
39502;SDS011;26970;49.900;10.774;2023-05-20T14:23:06;9.10;;;6.20;;
39502;SDS011;26970;49.900;10.774;2023-05-20T14:25:32;7.80;;;6.22;;
39502;SDS011;26970;49.900;10.774;2023-05-20T14:28:00;7.97;;;6.47;;
39502;SDS011;26970;49.900;10.774;2023-05-20T14:30:26;9.02;;;6.43;;
39502;SDS011;26970;49.900;10.774;2023-05-20T14:32:51;8.40;;;6.10;;
39502;SDS011;26970;49.900;10.774;2023-05-20T14:35:19;8.48;;;6.28;;
39502;SDS011;26970;49.900;10.774;2023-05-20T14:37:48;10.00;;;6.80;;
39502;SDS011;26970;49.900;10.774;2023-05-20T14:40:19;9.35;;;6.70;;
39502;SDS011;26970;49.900;10.774;2023-05-20T14:42:45;7.40;;;5.72;;
39502;SDS011;26970;49.900;10.774;2023-05-20T14:45:10;9.85;;;6.85;;
39502;SDS011;26970;49.900;10.774;2023-05-20T14:47:36;8.05;;;6.43;;